Twr-7 — TWR-7 — position and weather

sailwx.info

Track history (hours):
 
Tides and Currents Weather Stations Pressure Air Temp Water Temp Dewpoint Dewpoint Depression Visibility Wind Speed Wind Dir Waves Ship Positions

Twr-7

Last reported at 2017-Aug-12 21:19 UTC. Time now 2017-Aug-20 15:24 UTC.
Position N 47°48' W 122°41'.

; draft 1.5 m.

Type: Military. MMSI: 369970258.

Date/timePositionNaut miles runAvg speedWind from/ knotsBaromVisibWave heightAir tempDewpointWater temp
2017-Aug-12 21:19N 47°48' W 122°41'3613.9
2017-Aug-12 18:42N 48°22' W 123°01'318.0
2017-Aug-12 18:30N 48°25' W 123°04'917.6
2017-Aug-12 18:00N 48°32' W 123°12'1019.1
2017-Aug-12 17:30N 48°41' W 123°16'918.2
2017-Aug-12 17:00N 48°50' W 123°21'917.8
2017-Aug-12 16:30N 48°56' W 123°31'917.7
2017-Aug-12 16:00N 49°02' W 123°40'917.0
2017-Aug-12 15:30N 49°08' W 123°49'510.9
2017-Aug-12 15:01N 49°12' W 123°55'815.5
2017-Aug-12 14:30N 49°16' W 124°05'3 5.3
2017-Aug-12 14:00N 49°16' W 124°09'0 0.0
2017-Aug-12 13:30N 49°16' W 124°09'  
2017-Aug-08 20:00N 48°58' W 123°34'815.9
2017-Aug-08 19:30N 48°53' W 123°26'915.6
2017-Aug-08 18:56N 48°45' W 123°19'717.5
2017-Aug-08 18:30N 48°39' W 123°14'714.3
2017-Aug-08 18:00N 48°32' W 123°11'612.6
2017-Aug-08 17:30N 48°27' W 123°05'1015.8
2017-Aug-08 16:51N 48°18' W 122°56'2318.4
2017-Aug-08 15:37N 47°60' W 122°36'219.0
2017-Aug-08 15:30N 47°58' W 122°35'816.8
2017-Aug-08 15:00N 47°51' W 122°28'713.9
2017-Aug-08 14:29N 47°44' W 122°30'  
2017-Aug-05 00:00N 47°41' W 122°36'510.2
2017-Aug-04 23:30N 47°44' W 122°30'  
Track history (hours):
 
Tides and Currents Weather Stations Pressure Air Temp Water Temp Dewpoint Dewpoint Depression Visibility Wind Speed Wind Dir Waves Ship Positions

Twr-7

Last reported at 2017-Aug-12 21:19 UTC. Time now 2017-Aug-20 15:24 UTC.
Position N 47°48' W 122°41'.

; draft 1.5 m.

Type: Military. MMSI: 369970258.

Date/timePositionNaut miles runAvg speedWind from/ knotsBaromVisibWave heightAir tempDewpointWater temp
2017-Aug-12 21:19N 47°48' W 122°41'3613.9
2017-Aug-12 18:42N 48°22' W 123°01'318.0
2017-Aug-12 18:30N 48°25' W 123°04'917.6
2017-Aug-12 18:00N 48°32' W 123°12'1019.1
2017-Aug-12 17:30N 48°41' W 123°16'918.2
2017-Aug-12 17:00N 48°50' W 123°21'917.8
2017-Aug-12 16:30N 48°56' W 123°31'917.7
2017-Aug-12 16:00N 49°02' W 123°40'917.0
2017-Aug-12 15:30N 49°08' W 123°49'510.9
2017-Aug-12 15:01N 49°12' W 123°55'815.5
2017-Aug-12 14:30N 49°16' W 124°05'3 5.3
2017-Aug-12 14:00N 49°16' W 124°09'0 0.0
2017-Aug-12 13:30N 49°16' W 124°09'  
2017-Aug-08 20:00N 48°58' W 123°34'815.9
2017-Aug-08 19:30N 48°53' W 123°26'915.6
2017-Aug-08 18:56N 48°45' W 123°19'717.5
2017-Aug-08 18:30N 48°39' W 123°14'714.3
2017-Aug-08 18:00N 48°32' W 123°11'612.6
2017-Aug-08 17:30N 48°27' W 123°05'1015.8
2017-Aug-08 16:51N 48°18' W 122°56'2318.4
2017-Aug-08 15:37N 47°60' W 122°36'219.0
2017-Aug-08 15:30N 47°58' W 122°35'816.8
2017-Aug-08 15:00N 47°51' W 122°28'713.9
2017-Aug-08 14:29N 47°44' W 122°30'  
2017-Aug-05 00:00N 47°41' W 122°36'510.2
2017-Aug-04 23:30N 47°44' W 122°30'  

Dump ship's entire track history